Time;durP1;ratioP1;P1;durP2;ratioP2;P2;SDS_P1;SDS_P2;PMS_P1;PMS_P2;Temp;Humidity;BMP_temperature;BMP_pressure;BME280_temperature;BME280_humidity;BME280_pressure;Samples;Min_cycle;Max_cycle;Signal;HPM_P1;HPM_P2
2021/07/11 00:02:14;;;;;;;3.30;2.50;;;;;;;;;;5080467;28;20229;-67
2021/07/11 00:04:43;;;;;;;3.33;2.77;;;;;;;;;;5080906;28;20204;-67
2021/07/11 00:07:14;;;;;;;6.10;2.80;;;;;;;;;;5080597;28;20214;-67
2021/07/11 00:09:42;;;;;;;3.90;2.93;;;;;;;;;;5080616;28;20719;-66
2021/07/11 00:12:10;;;;;;;3.90;2.77;;;;;;;;;;5080615;28;20296;-66
2021/07/11 00:14:38;;;;;;;4.80;3.67;;;;;;;;;;5080877;28;20206;-66
2021/07/11 00:17:06;;;;;;;8.80;3.23;;;;;;;;;;5080574;28;20214;-67
2021/07/11 00:19:36;;;;;;;4.47;2.97;;;;;;;;;;5080674;28;20234;-67
2021/07/11 00:22:04;;;;;;;4.30;3.10;;;;;;;;;;5080267;28;20228;-66
2021/07/11 00:24:33;;;;;;;4.50;3.17;;;;;;;;;;5080585;28;20220;-66
2021/07/11 00:27:01;;;;;;;5.53;3.00;;;;;;;;;;5080326;28;20199;-66
2021/07/11 00:29:29;;;;;;;3.80;2.70;;;;;;;;;;5080498;28;20215;-67
2021/07/11 00:31:57;;;;;;;5.13;3.17;;;;;;;;;;5080219;28;20287;-67
2021/07/11 00:34:25;;;;;;;4.03;3.10;;;;;;;;;;5080438;28;20202;-66
2021/07/11 00:36:54;;;;;;;7.63;3.93;;;;;;;;;;5080211;28;20208;-66
2021/07/11 00:39:22;;;;;;;5.70;4.00;;;;;;;;;;5080224;28;20211;-67
2021/07/11 00:41:50;;;;;;;5.20;3.63;;;;;;;;;;5079935;28;20245;-67
2021/07/11 00:44:18;;;;;;;4.57;3.83;;;;;;;;;;5079920;28;20232;-67
2021/07/11 00:46:46;;;;;;;4.07;3.43;;;;;;;;;;5079972;28;20207;-67
2021/07/11 00:49:15;;;;;;;4.70;3.93;;;;;;;;;;5080105;28;20289;-66
2021/07/11 00:51:43;;;;;;;4.77;4.10;;;;;;;;;;5079731;28;20230;-68
2021/07/11 00:54:12;;;;;;;6.30;3.57;;;;;;;;;;5080050;28;20199;-68
2021/07/11 00:56:44;;;;;;;7.03;4.20;;;;;;;;;;5079852;28;20210;-68
2021/07/11 00:59:12;;;;;;;5.80;4.33;;;;;;;;;;5080260;28;20206;-69
2021/07/11 01:01:47;;;;;;;6.30;4.37;;;;;;;;;;5080151;28;20226;-68
2021/07/11 01:04:19;;;;;;;6.50;4.00;;;;;;;;;;5079570;28;20225;-68
2021/07/11 01:06:51;;;;;;;7.33;3.70;;;;;;;;;;5078770;28;20224;-68
2021/07/11 01:09:25;;;;;;;5.17;3.70;;;;;;;;;;5079572;28;20983;-68
2021/07/11 01:12:03;;;;;;;7.17;3.20;;;;;;;;;;5079553;28;20228;-68
2021/07/11 01:14:32;;;;;;;5.73;3.97;;;;;;;;;;5079443;28;20204;-68
2021/07/11 01:17:01;;;;;;;6.13;3.60;;;;;;;;;;5079525;28;20220;-68
2021/07/11 01:19:36;;;;;;;6.40;3.80;;;;;;;;;;5079269;28;20615;-67
2021/07/11 01:22:07;;;;;;;4.50;3.33;;;;;;;;;;5078938;28;20761;-67
2021/07/11 01:24:39;;;;;;;7.97;4.10;;;;;;;;;;5079294;28;20230;-66
2021/07/11 01:27:09;;;;;;;5.70;3.67;;;;;;;;;;5067157;28;20266;-68
2021/07/11 01:29:37;;;;;;;7.93;3.93;;;;;;;;;;5079160;28;20228;-68
2021/07/11 01:32:05;;;;;;;6.00;4.70;;;;;;;;;;5079360;28;20226;-68
2021/07/11 01:34:33;;;;;;;5.27;3.90;;;;;;;;;;5079462;28;20208;-66
2021/07/11 01:37:01;;;;;;;6.73;4.37;;;;;;;;;;5079039;28;20217;-68
2021/07/11 01:39:29;;;;;;;7.60;4.47;;;;;;;;;;5079064;28;20202;-68
2021/07/11 01:41:57;;;;;;;7.17;4.90;;;;;;;;;;5079062;28;20650;-66
2021/07/11 01:44:28;;;;;;;6.27;4.13;;;;;;;;;;5078734;28;20713;-66
2021/07/11 01:46:56;;;;;;;7.33;4.83;;;;;;;;;;5079230;28;20768;-67
2021/07/11 01:49:25;;;;;;;6.63;4.43;;;;;;;;;;5078869;28;20244;-67
2021/07/11 01:51:53;;;;;;;6.83;4.40;;;;;;;;;;5078656;28;20236;-67
2021/07/11 01:54:21;;;;;;;6.87;4.60;;;;;;;;;;5078596;28;20236;-67
2021/07/11 01:56:49;;;;;;;6.30;4.23;;;;;;;;;;5079255;28;20646;-66
2021/07/11 01:59:17;;;;;;;7.13;4.20;;;;;;;;;;5078700;28;20665;-67
2021/07/11 02:01:46;;;;;;;5.93;4.53;;;;;;;;;;5078441;28;20234;-67
2021/07/11 02:04:14;;;;;;;6.57;4.67;;;;;;;;;;5078260;28;20587;-67
2021/07/11 02:06:42;;;;;;;6.90;4.77;;;;;;;;;;5078362;28;20206;-66
2021/07/11 02:09:10;;;;;;;9.50;4.90;;;;;;;;;;5078505;28;20213;-67
2021/07/11 02:11:39;;;;;;;5.63;4.70;;;;;;;;;;5078315;28;20309;-66
2021/07/11 02:14:08;;;;;;;9.03;4.83;;;;;;;;;;5078438;28;20281;-66
2021/07/11 02:16:38;;;;;;;7.10;4.47;;;;;;;;;;5078121;28;20311;-68
2021/07/11 02:19:07;;;;;;;7.77;4.93;;;;;;;;;;5078421;28;20209;-68
2021/07/11 02:21:36;;;;;;;5.10;4.23;;;;;;;;;;5078514;28;20236;-68
2021/07/11 02:24:05;;;;;;;5.83;4.37;;;;;;;;;;5078411;28;20232;-68
2021/07/11 02:26:36;;;;;;;6.70;4.50;;;;;;;;;;5078171;28;20215;-68
2021/07/11 02:29:06;;;;;;;5.60;4.50;;;;;;;;;;5078144;28;20210;-68
2021/07/11 02:31:36;;;;;;;5.97;3.60;;;;;;;;;;5077920;28;20222;-68
2021/07/11 02:34:04;;;;;;;7.93;4.50;;;;;;;;;;5077943;28;20777;-68
2021/07/11 02:36:34;;;;;;;5.40;4.20;;;;;;;;;;5077900;28;20675;-68
2021/07/11 02:39:04;;;;;;;5.60;3.93;;;;;;;;;;5078190;28;20206;-68
2021/07/11 02:41:32;;;;;;;5.60;3.90;;;;;;;;;;5077588;28;20233;-68
2021/07/11 02:44:02;;;;;;;5.53;4.10;;;;;;;;;;5077788;28;20591;-68
2021/07/11 02:46:33;;;;;;;4.93;3.93;;;;;;;;;;5078021;28;20201;-68
2021/07/11 02:49:03;;;;;;;5.00;4.27;;;;;;;;;;5078002;28;20202;-68
2021/07/11 02:51:32;;;;;;;5.97;3.83;;;;;;;;;;5077626;28;20236;-68
2021/07/11 02:54:02;;;;;;;5.33;3.90;;;;;;;;;;5077758;28;20205;-68
2021/07/11 02:56:33;;;;;;;5.43;3.40;;;;;;;;;;5077844;28;20206;-68
2021/07/11 02:59:02;;;;;;;7.10;3.97;;;;;;;;;;5077649;28;20203;-68
2021/07/11 03:01:31;;;;;;;5.80;3.70;;;;;;;;;;5077715;28;20299;-68
2021/07/11 03:04:00;;;;;;;5.03;4.03;;;;;;;;;;5077701;28;20230;-68
2021/07/11 03:06:31;;;;;;;4.37;3.77;;;;;;;;;;5077394;28;20255;-68
2021/07/11 03:08:59;;;;;;;6.57;4.17;;;;;;;;;;5077555;28;20288;-68
2021/07/11 03:11:30;;;;;;;5.97;4.30;;;;;;;;;;5077569;28;20228;-68
2021/07/11 03:13:58;;;;;;;7.20;4.97;;;;;;;;;;5076613;28;20288;-68
2021/07/11 03:16:27;;;;;;;6.03;4.33;;;;;;;;;;5077547;28;20669;-68
2021/07/11 03:18:55;;;;;;;4.20;3.80;;;;;;;;;;5077696;28;20202;-68
2021/07/11 03:21:24;;;;;;;5.37;3.53;;;;;;;;;;5077350;28;20223;-68
2021/07/11 03:23:53;;;;;;;4.97;3.50;;;;;;;;;;5077718;28;20226;-68
2021/07/11 03:26:22;;;;;;;5.83;3.50;;;;;;;;;;5077518;28;20213;-68
2021/07/11 03:28:52;;;;;;;4.27;3.50;;;;;;;;;;5077603;28;20319;-68
2021/07/11 03:31:22;;;;;;;4.87;3.40;;;;;;;;;;5081266;28;20245;-68
2021/07/11 03:33:53;;;;;;;4.73;3.37;;;;;;;;;;5081585;28;20240;-68
2021/07/11 03:36:22;;;;;;;4.20;3.33;;;;;;;;;;5081393;28;20206;-68
2021/07/11 03:38:53;;;;;;;4.10;3.50;;;;;;;;;;5081232;28;20614;-68
2021/07/11 03:41:24;;;;;;;3.87;2.97;;;;;;;;;;5081223;28;20308;-68
2021/07/11 03:43:55;;;;;;;4.33;2.87;;;;;;;;;;5081515;28;20210;-68
2021/07/11 03:46:29;;;;;;;4.50;3.47;;;;;;;;;;5081447;28;20232;-68
2021/07/11 03:48:58;;;;;;;5.47;3.70;;;;;;;;;;5081510;28;20206;-68
2021/07/11 03:51:27;;;;;;;4.80;3.47;;;;;;;;;;5080708;28;20709;-68
2021/07/11 03:53:56;;;;;;;5.40;4.00;;;;;;;;;;5080893;28;20289;-68
2021/07/11 03:56:27;;;;;;;5.43;3.83;;;;;;;;;;5081074;28;20232;-68
2021/07/11 03:58:57;;;;;;;5.73;3.67;;;;;;;;;;5080810;28;20677;-68
2021/07/11 04:01:25;;;;;;;5.57;3.93;;;;;;;;;;5081057;28;20230;-68
2021/07/11 04:03:54;;;;;;;4.57;3.40;;;;;;;;;;5080672;28;20213;-68
2021/07/11 04:06:23;;;;;;;4.57;3.60;;;;;;;;;;5080427;28;20202;-68
2021/07/11 04:08:54;;;;;;;5.90;4.07;;;;;;;;;;5080600;28;20214;-68
2021/07/11 04:11:23;;;;;;;4.73;4.23;;;;;;;;;;5080476;28;20222;-68
2021/07/11 04:13:51;;;;;;;4.80;3.63;;;;;;;;;;5080653;28;20206;-68
2021/07/11 04:16:22;;;;;;;4.17;3.67;;;;;;;;;;5080768;28;20206;-68
2021/07/11 04:18:51;;;;;;;4.67;3.83;;;;;;;;;;5080760;28;20260;-68
2021/07/11 04:21:19;;;;;;;4.60;3.83;;;;;;;;;;5080237;28;20232;-68
2021/07/11 04:23:49;;;;;;;5.67;3.63;;;;;;;;;;5080584;28;20210;-68
2021/07/11 04:26:17;;;;;;;4.93;3.63;;;;;;;;;;5080393;28;20222;-68
2021/07/11 04:28:45;;;;;;;4.50;3.70;;;;;;;;;;5080612;28;20649;-68
2021/07/11 04:31:13;;;;;;;4.47;4.00;;;;;;;;;;5080590;28;20669;-68
2021/07/11 04:33:43;;;;;;;5.60;4.10;;;;;;;;;;5080133;28;20277;-68
2021/07/11 04:36:11;;;;;;;6.00;3.50;;;;;;;;;;5079836;28;20572;-68
2021/07/11 04:38:39;;;;;;;5.53;3.43;;;;;;;;;;5080184;28;20665;-68
2021/07/11 04:41:09;;;;;;;5.27;3.67;;;;;;;;;;5079419;28;20210;-68
2021/07/11 04:43:37;;;;;;;4.97;3.63;;;;;;;;;;5079811;28;20210;-68
2021/07/11 04:46:05;;;;;;;5.03;3.50;;;;;;;;;;5079860;28;20222;-68
2021/07/11 04:48:33;;;;;;;4.03;3.43;;;;;;;;;;5079972;28;20202;-68
2021/07/11 04:51:03;;;;;;;6.93;4.40;;;;;;;;;;5080051;28;20285;-68
2021/07/11 04:53:31;;;;;;;4.93;3.50;;;;;;;;;;5080169;28;20561;-68
2021/07/11 04:55:59;;;;;;;5.07;3.53;;;;;;;;;;5080348;28;20203;-68
2021/07/11 04:58:27;;;;;;;4.93;3.37;;;;;;;;;;5080291;28;20202;-68
2021/07/11 05:00:55;;;;;;;6.00;3.30;;;;;;;;;;5079969;28;20285;-68
2021/07/11 05:03:22;;;;;;;3.87;3.47;;;;;;;;;;5079702;28;20579;-68
2021/07/11 05:05:50;;;;;;;7.30;4.03;;;;;;;;;;5079467;28;20240;-68
2021/07/11 05:08:20;;;;;;;4.53;3.57;;;;;;;;;;5079842;28;20213;-68
2021/07/11 05:10:48;;;;;;;7.63;3.57;;;;;;;;;;5076140;28;20713;-68
2021/07/11 05:13:16;;;;;;;6.13;3.60;;;;;;;;;;5079378;28;20236;-68
2021/07/11 05:15:44;;;;;;;4.27;3.13;;;;;;;;;;5079434;28;20719;-68
2021/07/11 05:18:12;;;;;;;5.00;3.33;;;;;;;;;;5079519;28;20198;-68
2021/07/11 05:20:40;;;;;;;3.73;3.27;;;;;;;;;;5079171;28;20206;-68
2021/07/11 05:23:08;;;;;;;6.60;3.90;;;;;;;;;;5079289;28;20309;-68
2021/07/11 05:25:37;;;;;;;4.73;3.93;;;;;;;;;;5078811;28;20305;-68
2021/07/11 05:28:05;;;;;;;7.27;4.57;;;;;;;;;;5079362;28;20208;-68
2021/07/11 05:30:33;;;;;;;5.30;3.80;;;;;;;;;;5079363;28;20198;-68
2021/07/11 05:33:02;;;;;;;9.00;6.17;;;;;;;;;;5078815;28;20678;-68
2021/07/11 05:35:30;;;;;;;5.33;3.83;;;;;;;;;;5068322;28;20548;-68
2021/07/11 05:37:58;;;;;;;3.80;3.00;;;;;;;;;;5079152;28;20206;-68
2021/07/11 05:40:26;;;;;;;6.40;3.57;;;;;;;;;;5079122;28;20210;-68
2021/07/11 05:42:56;;;;;;;4.00;2.93;;;;;;;;;;5078759;28;20230;-68
2021/07/11 05:45:24;;;;;;;4.17;3.23;;;;;;;;;;5079081;28;20234;-68
2021/07/11 05:47:51;;;;;;;4.13;3.30;;;;;;;;;;5078886;28;20213;-68
2021/07/11 05:50:19;;;;;;;4.10;3.47;;;;;;;;;;5078675;28;20206;-68
2021/07/11 05:52:47;;;;;;;4.73;3.50;;;;;;;;;;5078509;28;20294;-68
2021/07/11 05:55:15;;;;;;;8.63;3.40;;;;;;;;;;5079238;28;20285;-68
2021/07/11 05:57:43;;;;;;;5.27;3.43;;;;;;;;;;5078721;28;20202;-68
2021/07/11 06:00:13;;;;;;;12.47;3.20;;;;;;;;;;5078782;28;20236;-68
2021/07/11 06:02:41;;;;;;;7.23;3.63;;;;;;;;;;5078713;28;20233;-68
2021/07/11 06:05:10;;;;;;;3.27;2.97;;;;;;;;;;5078394;28;20216;-68
2021/07/11 06:07:38;;;;;;;4.73;3.00;;;;;;;;;;5078389;28;20715;-68
2021/07/11 06:10:06;;;;;;;8.23;3.20;;;;;;;;;;5078140;28;20210;-68
2021/07/11 06:12:35;;;;;;;3.50;2.97;;;;;;;;;;5078398;28;20226;-68
2021/07/11 06:15:05;;;;;;;3.33;2.60;;;;;;;;;;5078438;28;20209;-68
2021/07/11 06:17:34;;;;;;;7.03;3.20;;;;;;;;;;5078435;28;20210;-68
2021/07/11 06:20:03;;;;;;;3.80;3.00;;;;;;;;;;5077968;28;20202;-68
2021/07/11 06:22:31;;;;;;;4.00;3.50;;;;;;;;;;5078125;28;20309;-68
2021/07/11 06:25:06;;;;;;;3.93;2.60;;;;;;;;;;5078199;28;20281;-68
2021/07/11 06:27:34;;;;;;;2.83;2.50;;;;;;;;;;5078225;28;20312;-68
2021/07/11 06:33:32;;;;;;;3.63;2.73;;;;;;;;;;5066150;28;20240;-68
2021/07/11 06:36:00;;;;;;;5.07;2.60;;;;;;;;;;5077754;28;20209;-68
2021/07/11 06:38:28;;;;;;;3.87;2.40;;;;;;;;;;5078288;28;20212;-68
2021/07/11 06:40:56;;;;;;;5.33;2.50;;;;;;;;;;5078274;28;20210;-68
2021/07/11 06:43:24;;;;;;;3.03;2.50;;;;;;;;;;5078252;28;20202;-68
2021/07/11 06:45:52;;;;;;;3.10;2.50;;;;;;;;;;5078142;28;20317;-67
2021/07/11 06:48:20;;;;;;;3.10;2.20;;;;;;;;;;5077836;28;20233;-66
2021/07/11 06:50:49;;;;;;;4.93;3.20;;;;;;;;;;5077524;28;20206;-68
2021/07/11 06:53:17;;;;;;;6.27;3.30;;;;;;;;;;5077982;28;20237;-66
2021/07/11 06:55:45;;;;;;;3.90;2.10;;;;;;;;;;5077755;28;20321;-66
2021/07/11 06:58:13;;;;;;;2.47;2.17;;;;;;;;;;5078032;28;20673;-68
2021/07/11 07:00:41;;;;;;;2.60;2.00;;;;;;;;;;5077724;28;20577;-67
2021/07/11 07:03:09;;;;;;;2.97;2.33;;;;;;;;;;5077961;28;20721;-68
2021/07/11 07:05:37;;;;;;;2.43;2.17;;;;;;;;;;5077200;28;20217;-68
2021/07/11 07:08:06;;;;;;;2.30;2.10;;;;;;;;;;5078070;28;20214;-68
2021/07/11 07:10:34;;;;;;;4.17;2.47;;;;;;;;;;5077871;28;20289;-68
2021/07/11 07:13:02;;;;;;;5.20;1.87;;;;;;;;;;5077561;28;20570;-68
2021/07/11 07:15:30;;;;;;;3.07;2.10;;;;;;;;;;5077502;28;20547;-68
2021/07/11 07:17:58;;;;;;;3.77;2.07;;;;;;;;;;5077591;28;20201;-68
2021/07/11 07:20:27;;;;;;;3.30;1.90;;;;;;;;;;5077508;28;20206;-69
2021/07/11 07:22:55;;;;;;;5.23;2.00;;;;;;;;;;5078144;28;20230;-68
2021/07/11 07:25:25;;;;;;;2.77;2.07;;;;;;;;;;5078865;28;20289;-68
2021/07/11 07:27:53;;;;;;;4.47;2.20;;;;;;;;;;5078078;28;20597;-68
2021/07/11 07:30:21;;;;;;;2.70;2.03;;;;;;;;;;5077826;28;20206;-68
2021/07/11 07:32:49;;;;;;;5.67;2.30;;;;;;;;;;5077305;28;20227;-68
2021/07/11 07:35:17;;;;;;;1.90;1.80;;;;;;;;;;5076848;28;20606;-67
2021/07/11 07:37:46;;;;;;;3.27;1.93;;;;;;;;;;5077507;28;20280;-68
2021/07/11 07:40:14;;;;;;;1.83;1.73;;;;;;;;;;5077424;28;20295;-68
2021/07/11 07:42:44;;;;;;;2.13;1.80;;;;;;;;;;5077061;28;20309;-68
2021/07/11 07:45:12;;;;;;;2.60;1.90;;;;;;;;;;5077561;28;20207;-68
2021/07/11 07:47:40;;;;;;;2.30;2.10;;;;;;;;;;5077351;28;20225;-68
2021/07/11 07:50:09;;;;;;;3.93;1.80;;;;;;;;;;5077083;28;20214;-68
2021/07/11 07:52:38;;;;;;;3.27;2.73;;;;;;;;;;5077025;28;20321;-68
2021/07/11 07:55:06;;;;;;;1.97;1.87;;;;;;;;;;5077366;28;20202;-65
2021/07/11 07:57:34;;;;;;;3.50;2.00;;;;;;;;;;5077266;28;20222;-66
2021/07/11 08:00:04;;;;;;;2.73;1.80;;;;;;;;;;5077437;28;20213;-66
2021/07/11 08:02:32;;;;;;;3.40;2.00;;;;;;;;;;5077085;28;20233;-66
2021/07/11 08:05:00;;;;;;;2.20;2.00;;;;;;;;;;5077354;28;20209;-66
2021/07/11 08:07:28;;;;;;;3.23;1.90;;;;;;;;;;5077028;28;20232;-68
2021/07/11 08:09:57;;;;;;;4.47;2.10;;;;;;;;;;5076891;28;20220;-66
2021/07/11 08:12:24;;;;;;;3.37;2.30;;;;;;;;;;5076911;28;20590;-67
2021/07/11 08:14:52;;;;;;;2.30;2.10;;;;;;;;;;5076784;28;20213;-66
2021/07/11 08:17:22;;;;;;;2.33;2.13;;;;;;;;;;5079751;28;20208;-68
2021/07/11 08:19:50;;;;;;;4.40;2.20;;;;;;;;;;5080277;28;20219;-66
2021/07/11 08:22:18;;;;;;;2.40;2.20;;;;;;;;;;5081011;28;20226;-67
2021/07/11 08:24:46;;;;;;;2.60;2.30;;;;;;;;;;5080415;28;20206;-67
2021/07/11 08:27:13;;;;;;;2.17;1.83;;;;;;;;;;5080502;28;20309;-67
2021/07/11 08:29:41;;;;;;;2.37;2.07;;;;;;;;;;5080583;28;20237;-68
2021/07/11 08:32:09;;;;;;;2.50;2.03;;;;;;;;;;5080477;28;20313;-66
2021/07/11 08:34:39;;;;;;;3.37;2.03;;;;;;;;;;5079740;28;20235;-67
2021/07/11 08:37:07;;;;;;;3.93;2.27;;;;;;;;;;5080202;28;20592;-67
2021/07/11 08:39:38;;;;;;;2.53;2.10;;;;;;;;;;5080262;28;20210;-67
2021/07/11 08:42:08;;;;;;;2.60;2.10;;;;;;;;;;5079995;28;20252;-68
2021/07/11 08:44:36;;;;;;;2.67;2.10;;;;;;;;;;5079920;28;20211;-67
2021/07/11 08:47:04;;;;;;;2.37;2.03;;;;;;;;;;5080273;28;20228;-68
2021/07/11 08:49:33;;;;;;;3.50;2.00;;;;;;;;;;5079836;28;20241;-66
2021/07/11 08:52:03;;;;;;;5.27;2.17;;;;;;;;;;5080125;28;20231;-67
2021/07/11 08:54:31;;;;;;;4.37;2.57;;;;;;;;;;5080089;28;20208;-66
2021/07/11 08:56:59;;;;;;;3.50;2.20;;;;;;;;;;5079809;28;20744;-68
2021/07/11 08:59:27;;;;;;;5.03;2.27;;;;;;;;;;5079702;28;20304;-68
2021/07/11 09:01:56;;;;;;;2.40;2.10;;;;;;;;;;5079708;28;20739;-67
2021/07/11 09:04:24;;;;;;;3.63;2.10;;;;;;;;;;5079930;28;20269;-67
2021/07/11 09:06:54;;;;;;;2.17;1.90;;;;;;;;;;5079814;28;20206;-67
2021/07/11 09:09:27;;;;;;;2.73;2.17;;;;;;;;;;5079636;28;20606;-67
2021/07/11 09:11:58;;;;;;;6.27;1.80;;;;;;;;;;5079774;28;20228;-67
2021/07/11 09:14:27;;;;;;;2.13;1.73;;;;;;;;;;5079787;28;20220;-67
2021/07/11 09:16:56;;;;;;;3.27;1.90;;;;;;;;;;5079415;28;20553;-67
2021/07/11 09:19:29;;;;;;;2.20;2.00;;;;;;;;;;5079728;28;20242;-67
2021/07/11 09:21:59;;;;;;;1.90;1.80;;;;;;;;;;5079923;28;20258;-67
2021/07/11 09:24:29;;;;;;;2.00;1.60;;;;;;;;;;5079526;28;20207;-67
2021/07/11 09:27:05;;;;;;;2.37;1.90;;;;;;;;;;5079551;28;20206;-67
2021/07/11 09:29:33;;;;;;;2.20;1.80;;;;;;;;;;5078782;28;20215;-67
2021/07/11 09:32:01;;;;;;;4.90;2.37;;;;;;;;;;5079408;28;20251;-67
2021/07/11 09:34:30;;;;;;;4.60;2.30;;;;;;;;;;5078794;28;20709;-67
2021/07/11 09:37:11;;;;;;;3.07;1.97;;;;;;;;;;5079360;28;20212;-67
2021/07/11 09:39:51;;;;;;;3.03;1.77;;;;;;;;;;5078848;28;20576;-66
2021/07/11 09:42:32;;;;;;;2.13;1.87;;;;;;;;;;5078849;28;20235;-66
2021/07/11 09:45:01;;;;;;;3.33;2.23;;;;;;;;;;5078767;28;20235;-66
2021/07/11 09:47:31;;;;;;;2.13;1.90;;;;;;;;;;5079024;28;20704;-68
2021/07/11 09:50:10;;;;;;;4.53;2.90;;;;;;;;;;5078436;28;20570;-67
2021/07/11 09:52:40;;;;;;;3.03;2.60;;;;;;;;;;5078560;28;20643;-67
2021/07/11 09:55:11;;;;;;;1.53;1.50;;;;;;;;;;5078867;28;20299;-67
2021/07/11 09:57:40;;;;;;;1.70;1.60;;;;;;;;;;5078839;28;20649;-67
2021/07/11 10:00:19;;;;;;;2.33;1.57;;;;;;;;;;5078807;28;20205;-67
2021/07/11 10:02:48;;;;;;;1.60;1.50;;;;;;;;;;5078463;28;20728;-67
2021/07/11 10:05:17;;;;;;;5.10;1.80;;;;;;;;;;5078093;28;20576;-67
2021/07/11 10:07:45;;;;;;;1.57;1.47;;;;;;;;;;5078563;28;20229;-67
2021/07/11 10:10:16;;;;;;;2.30;1.87;;;;;;;;;;5078548;28;20217;-67
2021/07/11 10:12:44;;;;;;;2.90;1.77;;;;;;;;;;5078225;28;20592;-67
2021/07/11 10:15:13;;;;;;;3.33;1.77;;;;;;;;;;5078107;28;20349;-67
2021/07/11 10:17:44;;;;;;;1.87;1.60;;;;;;;;;;5078212;28;20202;-66
2021/07/11 10:20:13;;;;;;;1.87;1.57;;;;;;;;;;5078146;28;20238;-67
2021/07/11 10:22:43;;;;;;;2.03;1.50;;;;;;;;;;5079125;28;20231;-67
2021/07/11 10:25:12;;;;;;;2.47;1.73;;;;;;;;;;5078615;28;20205;-66
2021/07/11 10:27:42;;;;;;;1.80;1.70;;;;;;;;;;5078553;28;20226;-67
2021/07/11 10:30:11;;;;;;;1.37;1.27;;;;;;;;;;5078160;28;20210;-68
2021/07/11 10:32:39;;;;;;;3.70;1.30;;;;;;;;;;5078399;28;20228;-67
2021/07/11 10:35:08;;;;;;;1.67;1.43;;;;;;;;;;5077468;28;20678;-67
2021/07/11 10:37:47;;;;;;;1.53;1.40;;;;;;;;;;5077856;28;20697;-67
2021/07/11 10:40:16;;;;;;;1.73;1.57;;;;;;;;;;5077146;28;20213;-67
2021/07/11 10:42:49;;;;;;;1.80;1.57;;;;;;;;;;5077853;28;20840;-67
2021/07/11 10:45:18;;;;;;;1.30;1.20;;;;;;;;;;5078117;28;20230;-67
2021/07/11 10:47:46;;;;;;;4.60;1.50;;;;;;;;;;5078083;28;20207;-67
2021/07/11 10:50:25;;;;;;;2.67;1.47;;;;;;;;;;5077801;28;20219;-67
2021/07/11 10:52:54;;;;;;;1.80;1.40;;;;;;;;;;5077931;28;20231;-67
2021/07/11 10:55:22;;;;;;;1.40;1.30;;;;;;;;;;5078049;28;20217;-67
2021/07/11 10:57:52;;;;;;;2.23;1.53;;;;;;;;;;5077984;28;20212;-67
2021/07/11 11:00:21;;;;;;;2.20;1.50;;;;;;;;;;5077963;28;20214;-67
2021/07/11 11:02:50;;;;;;;1.10;1.00;;;;;;;;;;5077568;28;20239;-67
2021/07/11 11:05:24;;;;;;;1.40;1.30;;;;;;;;;;5077564;28;20212;-66
2021/07/11 11:07:54;;;;;;;1.77;1.30;;;;;;;;;;5077570;28;20205;-68
2021/07/11 11:10:24;;;;;;;1.50;1.40;;;;;;;;;;5077821;28;20222;-66
2021/07/11 11:13:03;;;;;;;2.57;1.50;;;;;;;;;;5078046;28;20224;-66
2021/07/11 11:15:52;;;;;;;2.10;1.90;;;;;;;;;;5077512;28;20313;-68
2021/07/11 11:18:27;;;;;;;1.63;1.40;;;;;;;;;;5073007;28;20295;-66
2021/07/11 11:20:56;;;;;;;2.97;2.00;;;;;;;;;;5077934;28;20212;-66
2021/07/11 11:23:25;;;;;;;4.23;2.20;;;;;;;;;;5078159;28;20221;-66
2021/07/11 11:25:53;;;;;;;2.10;1.90;;;;;;;;;;5077765;28;20198;-66
2021/07/11 11:28:33;;;;;;;3.13;1.47;;;;;;;;;;5077260;28;20232;-66
2021/07/11 11:31:05;;;;;;;1.80;1.70;;;;;;;;;;5077495;28;20263;-66
2021/07/11 11:33:36;;;;;;;1.53;1.43;;;;;;;;;;5077518;28;20237;-67
2021/07/11 11:36:04;;;;;;;2.47;1.83;;;;;;;;;;5077127;28;20306;-66
2021/07/11 11:38:41;;;;;;;1.63;1.53;;;;;;;;;;5077687;28;20221;-66
2021/07/11 11:41:11;;;;;;;2.80;1.77;;;;;;;;;;5077215;28;20210;-66
2021/07/11 11:43:41;;;;;;;1.90;1.57;;;;;;;;;;5077594;28;20211;-66
2021/07/11 11:46:09;;;;;;;2.57;1.50;;;;;;;;;;5077468;28;20260;-66
2021/07/11 11:48:37;;;;;;;1.43;1.30;;;;;;;;;;5077460;28;20223;-66
2021/07/11 11:51:06;;;;;;;1.50;1.40;;;;;;;;;;5077626;28;20231;-66
2021/07/11 11:53:43;;;;;;;2.13;1.53;;;;;;;;;;5081073;28;20228;-66
2021/07/11 11:56:12;;;;;;;2.37;1.53;;;;;;;;;;5080789;28;20235;-66
2021/07/11 11:58:42;;;;;;;1.93;1.60;;;;;;;;;;5080988;28;20551;-65
2021/07/11 12:01:11;;;;;;;1.57;1.40;;;;;;;;;;5081011;28;20239;-66
2021/07/11 12:03:40;;;;;;;2.47;1.87;;;;;;;;;;5081016;28;20207;-66
2021/07/11 12:06:08;;;;;;;5.07;2.00;;;;;;;;;;5080561;28;20206;-66
2021/07/11 12:08:37;;;;;;;1.37;1.27;;;;;;;;;;5080628;28;20229;-66
2021/07/11 12:11:06;;;;;;;2.30;1.33;;;;;;;;;;5080895;28;20288;-66
2021/07/11 12:13:34;;;;;;;2.47;1.40;;;;;;;;;;5080816;28;20216;-66
2021/07/11 12:16:07;;;;;;;2.43;1.67;;;;;;;;;;5080833;28;20210;-68
2021/07/11 12:18:42;;;;;;;2.13;1.57;;;;;;;;;;5080565;28;20557;-68
2021/07/11 12:21:10;;;;;;;1.40;1.30;;;;;;;;;;5080371;28;20213;-68
2021/07/11 12:23:38;;;;;;;1.50;1.33;;;;;;;;;;5080656;28;20208;-68
2021/07/11 12:26:07;;;;;;;1.53;1.43;;;;;;;;;;5080214;28;20211;-68
2021/07/11 12:28:39;;;;;;;2.20;1.50;;;;;;;;;;5080525;28;20207;-66
2021/07/11 12:31:18;;;;;;;2.10;1.37;;;;;;;;;;5080472;28;20214;-66
2021/07/11 12:33:47;;;;;;;2.00;1.80;;;;;;;;;;5080390;28;20299;-66
2021/07/11 12:36:15;;;;;;;1.90;1.80;;;;;;;;;;5079938;28;20216;-66
2021/07/11 12:38:43;;;;;;;1.70;1.40;;;;;;;;;;5080226;28;20579;-66
2021/07/11 12:41:13;;;;;;;1.80;1.20;;;;;;;;;;5079919;28;20211;-67
2021/07/11 12:43:47;;;;;;;1.50;1.40;;;;;;;;;;5080333;28;20203;-66
2021/07/11 12:46:17;;;;;;;1.50;1.40;;;;;;;;;;5079980;28;20233;-66
2021/07/11 12:48:46;;;;;;;1.87;1.50;;;;;;;;;;5080044;28;20686;-66
2021/07/11 12:51:15;;;;;;;3.27;1.80;;;;;;;;;;5079818;28;20214;-66
2021/07/11 12:53:43;;;;;;;1.73;1.63;;;;;;;;;;5080037;28;20208;-68
2021/07/11 12:56:13;;;;;;;1.87;1.77;;;;;;;;;;5079703;28;20218;-68
2021/07/11 12:58:43;;;;;;;1.50;1.40;;;;;;;;;;5079987;28;20209;-67
2021/07/11 13:01:11;;;;;;;2.37;1.83;;;;;;;;;;5079657;28;20211;-68
2021/07/11 13:03:40;;;;;;;1.50;1.40;;;;;;;;;;5078900;28;20209;-66
2021/07/11 13:06:13;;;;;;;2.13;2.00;;;;;;;;;;5079725;28;20203;-65
2021/07/11 13:08:42;;;;;;;5.70;3.93;;;;;;;;;;5079947;28;20228;-66
2021/07/11 13:11:11;;;;;;;2.97;2.40;;;;;;;;;;5079517;28;20292;-66
2021/07/11 13:13:39;;;;;;;4.73;3.33;;;;;;;;;;5079290;28;20629;-65
2021/07/11 13:16:07;;;;;;;2.53;1.97;;;;;;;;;;5079749;28;20233;-66
2021/07/11 13:18:35;;;;;;;1.90;1.50;;;;;;;;;;5079464;28;20213;-67
2021/07/11 13:21:04;;;;;;;3.70;1.63;;;;;;;;;;5078867;28;20203;-68
2021/07/11 13:23:32;;;;;;;2.30;1.40;;;;;;;;;;5079428;28;20214;-68
2021/07/11 13:26:00;;;;;;;2.47;1.20;;;;;;;;;;5079309;28;20205;-68
2021/07/11 13:28:28;;;;;;;1.67;1.40;;;;;;;;;;5079121;28;20683;-67
2021/07/11 13:30:56;;;;;;;1.33;1.23;;;;;;;;;;5079030;28;20321;-66
2021/07/11 13:33:24;;;;;;;3.20;1.23;;;;;;;;;;5079091;28;20208;-68
2021/07/11 13:35:52;;;;;;;1.67;1.30;;;;;;;;;;5079080;28;20209;-67
2021/07/11 13:38:22;;;;;;;3.00;1.70;;;;;;;;;;5079125;28;20313;-68
2021/07/11 13:40:50;;;;;;;1.63;1.53;;;;;;;;;;5079290;28;20204;-68
2021/07/11 13:43:18;;;;;;;2.20;2.00;;;;;;;;;;5079278;28;20230;-67
2021/07/11 13:45:46;;;;;;;1.73;1.50;;;;;;;;;;5079879;28;20682;-68
2021/07/11 13:48:14;;;;;;;2.17;1.97;;;;;;;;;;5079910;28;20205;-68
2021/07/11 13:50:42;;;;;;;1.67;1.57;;;;;;;;;;5078393;28;20260;-68
2021/07/11 13:53:10;;;;;;;1.50;1.40;;;;;;;;;;5079039;28;20228;-68
2021/07/11 13:55:40;;;;;;;1.13;1.00;;;;;;;;;;5078907;28;20212;-68
2021/07/11 13:58:09;;;;;;;1.50;1.40;;;;;;;;;;5078700;28;20216;-68
2021/07/11 14:00:36;;;;;;;1.80;1.67;;;;;;;;;;5078830;28;20286;-68
2021/07/11 14:03:04;;;;;;;1.10;1.10;;;;;;;;;;5078760;28;20226;-68
2021/07/11 14:05:32;;;;;;;1.93;1.40;;;;;;;;;;5078329;28;20262;-67
2021/07/11 14:08:01;;;;;;;1.10;1.10;;;;;;;;;;5078615;28;20293;-67
2021/07/11 14:10:30;;;;;;;1.70;1.33;;;;;;;;;;5078495;28;20265;-68
2021/07/11 14:12:59;;;;;;;1.30;1.20;;;;;;;;;;5078708;28;20229;-68
2021/07/11 14:15:28;;;;;;;1.13;1.03;;;;;;;;;;5078385;28;20216;-68
2021/07/11 14:17:56;;;;;;;1.53;1.43;;;;;;;;;;5078235;28;20216;-68
2021/07/11 14:20:24;;;;;;;3.83;1.47;;;;;;;;;;5078038;28;20203;-68
2021/07/11 14:22:52;;;;;;;1.83;1.30;;;;;;;;;;5078077;28;20222;-68
2021/07/11 14:25:20;;;;;;;1.80;1.30;;;;;;;;;;5078061;28;20241;-68
2021/07/11 14:27:48;;;;;;;2.07;1.40;;;;;;;;;;5078151;28;20211;-68
2021/07/11 14:30:17;;;;;;;1.20;1.20;;;;;;;;;;5077980;28;20245;-68
2021/07/11 14:32:45;;;;;;;1.93;1.60;;;;;;;;;;5078258;28;20229;-68
2021/07/11 14:35:14;;;;;;;1.30;1.20;;;;;;;;;;5077699;28;20241;-67
2021/07/11 14:37:42;;;;;;;2.50;1.13;;;;;;;;;;5078148;28;20212;-68
2021/07/11 14:40:11;;;;;;;3.30;1.20;;;;;;;;;;5077836;28;20597;-68
2021/07/11 14:42:39;;;;;;;1.27;1.17;;;;;;;;;;5078036;28;20235;-68
2021/07/11 14:45:07;;;;;;;1.50;1.40;;;;;;;;;;5077719;28;20573;-68
2021/07/11 14:47:39;;;;;;;1.10;1.00;;;;;;;;;;5078173;28;20213;-68
2021/07/11 14:50:07;;;;;;;1.37;1.27;;;;;;;;;;5078095;28;20267;-68
2021/07/11 14:52:35;;;;;;;1.43;1.33;;;;;;;;;;5078695;28;20232;-69
2021/07/11 14:55:04;;;;;;;1.60;1.10;;;;;;;;;;5078382;28;20213;-68
2021/07/11 14:57:32;;;;;;;1.77;1.67;;;;;;;;;;5078099;28;20212;-68
2021/07/11 15:00:00;;;;;;;1.57;0.97;;;;;;;;;;5077691;28;20574;-68